Sidnaw, MI

1:49 PM EDT on July 30, 2015 (GMT -0400)
MesoWest | | Change Station
CLOSE
Current Station
Personal Weather Station
Location: Kenton, MI
Elevation: 1521 ft
Nearby Weather Stations

Elev 1521 ft 46.48 °N, 88.99 °W | Updated 39 minutes ago

Partly Cloudy
Partly Cloudy
73 °F
Feels Like 77 °F
N
10
Wind Variable Wind from West
Gusts 24.0 mph

Today
High -- | Low -- °F
--% Chance of Precip.
Yesterday
High -- | Low -- °F
Precip. -- in
6:33 AM 9:28 PM
Waxing Gibbous, 99% visible
Pressure 29.97 in
Visibility 10.0 miles
Clouds Scattered Clouds 5500 ft
Scattered Clouds 8000 ft
Heat Index 77 °F
Dew Point 54 °F
Humidity 52%
Rainfall in
Snow Depth Not available.
UV 8 out of 12
Pollen 7.40 out of 12
Air Quality Not available.
Flu Activity Not available.
METAR KLNL 301735Z AUTO 29012G19KT 10SM SCT055 SCT080 25/07 A2997 RMK AO2 T02520071

More Conditions Fewer Conditions

Pressure 29.97 in
Visibility 10.0 miles
Clouds Scattered Clouds 5500 ft
Scattered Clouds 8000 ft
Heat Index 77 °F
Dew Point 54 °F
Humidity 52%
Rainfall in
Snow Depth Not available.
UV 8 out of 12
Pollen 7.40 out of 12
Air Quality Not available.
Flu Activity Not available.
METAR KLNL 301735Z AUTO 29012G19KT 10SM SCT055 SCT080 25/07 A2997 RMK AO2 T02520071

More Conditions Fewer Conditions

10-Day Weather Forecast

×

Almanac

Astronomy

Jul. 30, 2015 Rise Set
Actual Time
Civil Twilight
Nautical Twilight
Astronomical Twilight
Moon
Length of Visible Light
Length of Day
Tomorrow will be .
, % of the Moon is Illuminated

Today's Extremes

State Highs State Lows

Community

WunderPhotos

Upload Photos

1,842,428 photos uploaded!

WunderBlogs® & News

Nearby

Air Quality

  Air Quality AQ Index Pollutant
Not available.

Snow Depth

Station Depth Elevation

Earthquake Activity

City Distance Mag. Time & Date
Minimum magnitude displayed is 2.5.

Coastal Water Temperatures

Place Temperature

Stations

Nearby Weather Stations

Station Location Temp. Windchill Dew Point Humidity Wind Precip. Elev Updated Type